createdAt,value
2022-08-26T00:02:19.371Z,23.12
2022-08-26T00:04:48.628Z,23.10
2022-08-26T00:07:16.237Z,23.10
2022-08-26T00:09:47.310Z,23.11
2022-08-26T00:12:15.326Z,23.08
2022-08-26T00:14:42.910Z,23.09
2022-08-26T00:17:10.566Z,23.07
2022-08-26T00:19:38.501Z,23.02
2022-08-26T00:22:12.321Z,23.07
2022-08-26T00:24:39.856Z,23.05
2022-08-26T00:27:15.587Z,23.02
2022-08-26T00:29:43.268Z,22.99
2022-08-26T00:32:12.647Z,22.98
2022-08-26T00:34:41.954Z,22.95
2022-08-26T00:37:13.410Z,22.92
2022-08-26T00:39:46.206Z,23.06
2022-08-26T00:42:14.043Z,22.94
2022-08-26T00:44:41.579Z,22.89
2022-08-26T00:47:31.052Z,22.90
2022-08-26T00:50:02.411Z,22.84
2022-08-26T00:52:30.969Z,22.79
2022-08-26T00:55:04.998Z,22.79
2022-08-26T00:57:34.434Z,22.79
2022-08-26T01:00:07.493Z,22.78
2022-08-26T01:02:36.286Z,22.71
2022-08-26T01:05:06.017Z,22.72
2022-08-26T01:07:34.809Z,22.70
2022-08-26T01:12:40.139Z,22.66
2022-08-26T01:15:11.278Z,22.60
2022-08-26T01:17:39.505Z,22.57
2022-08-26T01:20:19.173Z,22.58
2022-08-26T01:22:50.479Z,22.60
2022-08-26T01:25:21.304Z,22.56
2022-08-26T01:27:49.665Z,22.54
2022-08-26T01:30:19.214Z,22.51
2022-08-26T01:32:49.075Z,22.44
2022-08-26T01:35:16.684Z,22.41
2022-08-26T01:37:48.186Z,22.44
2022-08-26T01:40:21.989Z,22.35
2022-08-26T01:42:50.358Z,22.41
2022-08-26T01:45:30.864Z,22.43
2022-08-26T01:48:01.263Z,22.40
2022-08-26T01:50:33.926Z,22.36
2022-08-26T01:53:06.861Z,22.27
2022-08-26T01:55:37.468Z,22.33
2022-08-26T01:58:08.357Z,22.29
2022-08-26T02:00:37.154Z,22.29
2022-08-26T02:03:17.502Z,22.29
2022-08-26T02:05:51.392Z,22.30
2022-08-26T02:08:24.914Z,22.27
2022-08-26T02:10:54.711Z,22.28
2022-08-26T02:13:25.541Z,22.27
2022-08-26T02:15:54.264Z,22.31
2022-08-26T02:18:22.867Z,22.30
2022-08-26T02:20:56.450Z,22.29
2022-08-26T02:23:25.043Z,22.29
2022-08-26T02:26:19.382Z,22.34
2022-08-26T02:29:05.098Z,22.27
2022-08-26T02:31:35.538Z,22.19
2022-08-26T02:34:15.688Z,22.26
2022-08-26T02:36:43.515Z,22.19
2022-08-26T02:39:16.956Z,22.20
2022-08-26T02:41:50.294Z,22.15
2022-08-26T02:44:18.878Z,22.17
2022-08-26T02:46:47.220Z,22.15
2022-08-26T02:49:17.045Z,22.19
2022-08-26T02:51:44.837Z,22.23
2022-08-26T02:54:12.955Z,22.20
2022-08-26T02:56:41.040Z,22.27
2022-08-26T02:59:09.667Z,22.30
2022-08-26T03:01:37.253Z,22.35
2022-08-26T03:04:07.564Z,22.41
2022-08-26T03:06:43.907Z,22.43
2022-08-26T03:09:21.283Z,22.52
2022-08-26T03:11:52.050Z,22.58
2022-08-26T03:14:20.690Z,22.60
2022-08-26T03:19:18.943Z,22.69
2022-08-26T03:21:47.195Z,22.74
2022-08-26T03:24:17.636Z,22.75
2022-08-26T03:26:52.131Z,22.77
2022-08-26T03:29:40.270Z,22.74
2022-08-26T03:32:08.962Z,22.74
2022-08-26T03:34:37.317Z,22.79
2022-08-26T03:37:06.224Z,22.80
2022-08-26T03:39:33.959Z,22.84
2022-08-26T03:42:01.903Z,22.86
2022-08-26T03:44:29.417Z,22.87
2022-08-26T03:46:59.662Z,22.98
2022-08-26T03:49:36.979Z,23.06
2022-08-26T03:52:05.339Z,23.14
2022-08-26T03:54:33.788Z,23.27
2022-08-26T03:57:01.514Z,23.27
2022-08-26T03:59:29.014Z,23.38
2022-08-26T04:01:56.667Z,23.46
2022-08-26T04:04:26.634Z,23.56
2022-08-26T04:06:58.922Z,23.67
2022-08-26T04:09:27.695Z,23.72
2022-08-26T04:11:58.784Z,23.83
2022-08-26T04:14:27.778Z,23.89
2022-08-26T04:16:56.331Z,23.97
2022-08-26T04:19:25.558Z,24.06
2022-08-26T04:21:53.995Z,24.16
2022-08-26T04:24:24.176Z,24.34
2022-08-26T04:26:57.990Z,24.42
2022-08-26T04:29:26.956Z,24.47
2022-08-26T04:31:56.006Z,24.51
2022-08-26T04:34:27.235Z,24.60
2022-08-26T04:36:57.902Z,24.69
2022-08-26T04:39:27.636Z,24.85
2022-08-26T04:41:57.916Z,25.00
2022-08-26T04:44:29.823Z,25.19
2022-08-26T04:46:58.945Z,25.32
2022-08-26T04:49:27.678Z,25.42
2022-08-26T04:51:55.382Z,25.60
2022-08-26T04:54:25.272Z,25.80
2022-08-26T04:56:53.005Z,25.96
2022-08-26T04:59:20.590Z,26.16
2022-08-26T05:01:54.125Z,26.38
2022-08-26T05:04:28.769Z,26.51
2022-08-26T05:07:02.478Z,26.71
2022-08-26T05:09:37.448Z,26.86
2022-08-26T05:12:17.197Z,27.02
2022-08-26T05:15:00.355Z,27.14
2022-08-26T05:17:31.614Z,27.32
2022-08-26T05:20:00.798Z,27.44
2022-08-26T05:22:29.104Z,27.61
2022-08-26T05:24:56.802Z,27.80
2022-08-26T05:27:25.065Z,27.96
2022-08-26T05:29:58.940Z,28.15
2022-08-26T05:32:27.964Z,28.31
2022-08-26T05:34:57.530Z,28.45
2022-08-26T05:37:27.023Z,28.61
2022-08-26T05:39:55.707Z,28.76
2022-08-26T05:42:25.049Z,28.98
2022-08-26T05:44:55.956Z,29.12
2022-08-26T05:47:25.397Z,29.29
2022-08-26T05:49:54.122Z,29.49
2022-08-26T05:52:24.583Z,29.66
2022-08-26T05:54:53.970Z,29.78
2022-08-26T05:57:23.121Z,29.99
2022-08-26T05:59:51.861Z,30.12
2022-08-26T06:02:20.349Z,30.29
2022-08-26T06:04:48.250Z,30.35
2022-08-26T06:07:17.055Z,30.58
2022-08-26T06:09:46.115Z,30.71
2022-08-26T06:12:13.671Z,30.96
2022-08-26T06:14:42.651Z,31.14
2022-08-26T06:17:13.219Z,31.34
2022-08-26T06:19:41.366Z,31.43
2022-08-26T06:22:31.758Z,31.60
2022-08-26T06:25:17.701Z,31.90
2022-08-26T06:27:45.349Z,31.99
2022-08-26T06:30:13.252Z,32.01
2022-08-26T06:32:41.079Z,32.05
2022-08-26T06:35:12.422Z,32.26
2022-08-26T06:37:41.170Z,32.65
2022-08-26T06:40:09.552Z,32.82
2022-08-26T06:42:39.337Z,33.06
2022-08-26T06:45:07.433Z,33.44
2022-08-26T06:47:36.370Z,33.61
2022-08-26T06:50:04.065Z,33.80
2022-08-26T06:52:37.615Z,34.13
2022-08-26T06:55:18.215Z,34.50
2022-08-26T06:57:46.075Z,34.81
2022-08-26T07:00:15.476Z,35.13
2022-08-26T07:02:46.868Z,35.31
2022-08-26T07:05:14.647Z,35.63
2022-08-26T07:07:42.152Z,35.77
2022-08-26T07:10:10.840Z,35.93
2022-08-26T07:12:39.006Z,35.99
2022-08-26T07:15:12.538Z,35.99
2022-08-26T07:17:40.220Z,35.95
2022-08-26T07:20:09.362Z,36.03
2022-08-26T07:22:37.263Z,36.33
2022-08-26T07:25:09.497Z,36.84
2022-08-26T07:27:38.966Z,37.44
2022-08-26T07:30:07.966Z,37.88
2022-08-26T07:32:35.550Z,38.19
2022-08-26T07:35:03.611Z,38.16
2022-08-26T07:37:35.415Z,38.31
2022-08-26T07:40:06.425Z,38.61
2022-08-26T07:42:34.543Z,39.04
2022-08-26T07:45:02.340Z,39.05
2022-08-26T07:47:32.838Z,38.69
2022-08-26T07:50:02.860Z,38.71
2022-08-26T07:52:34.494Z,38.86
2022-08-26T07:55:03.025Z,39.42
2022-08-26T07:57:31.386Z,39.85
2022-08-26T07:59:59.577Z,40.11
2022-08-26T08:02:28.876Z,40.41
2022-08-26T08:04:58.026Z,40.60
2022-08-26T08:07:44.317Z,40.91
2022-08-26T08:10:16.554Z,41.18
2022-08-26T08:12:45.086Z,41.43
2022-08-26T08:15:14.230Z,41.41
2022-08-26T08:17:46.353Z,41.40
2022-08-26T08:20:19.431Z,41.68
2022-08-26T08:22:47.748Z,41.93
2022-08-26T08:25:15.336Z,42.06
2022-08-26T08:27:45.283Z,41.88
2022-08-26T08:30:14.080Z,41.56
2022-08-26T08:32:43.809Z,41.72
2022-08-26T08:35:15.311Z,42.11
2022-08-26T08:37:46.213Z,42.49
2022-08-26T08:40:19.161Z,42.86
2022-08-26T08:42:54.861Z,42.85
2022-08-26T08:45:35.899Z,42.79
2022-08-26T08:48:27.634Z,42.93
2022-08-26T08:51:18.163Z,43.41
2022-08-26T08:53:49.689Z,43.11
2022-08-26T08:56:31.510Z,43.09
2022-08-26T08:59:20.378Z,43.50
2022-08-26T09:02:06.518Z,43.18
2022-08-26T09:04:45.845Z,43.28
2022-08-26T09:07:36.974Z,43.65
2022-08-26T09:10:23.390Z,43.46
2022-08-26T09:12:52.699Z,43.42
2022-08-26T09:15:57.978Z,43.99
2022-08-26T09:18:50.711Z,43.81
2022-08-26T09:21:20.229Z,44.21
2022-08-26T09:23:52.382Z,44.70
2022-08-26T09:26:41.018Z,44.97
2022-08-26T09:29:15.603Z,45.09
2022-08-26T09:31:43.263Z,45.51
2022-08-26T09:34:17.473Z,45.72
2022-08-26T09:36:55.788Z,45.92
2022-08-26T09:39:37.882Z,46.43
2022-08-26T09:42:12.371Z,46.75
2022-08-26T09:44:59.651Z,46.84
2022-08-26T09:47:31.647Z,46.12
2022-08-26T09:50:12.370Z,46.34
2022-08-26T09:52:42.690Z,46.55
2022-08-26T09:55:13.992Z,46.55
2022-08-26T09:57:46.099Z,46.40
2022-08-26T10:00:40.640Z,46.80
2022-08-26T10:03:15.530Z,46.68
2022-08-26T10:05:55.119Z,46.89
2022-08-26T10:08:38.974Z,46.72
2022-08-26T10:11:30.616Z,44.90
2022-08-26T10:14:08.108Z,45.00
2022-08-26T10:17:02.416Z,46.22
2022-08-26T10:19:55.568Z,46.33
2022-08-26T10:22:54.626Z,46.76
2022-08-26T10:25:28.548Z,46.51
2022-08-26T10:28:02.448Z,46.65
2022-08-26T10:30:40.029Z,47.21
2022-08-26T10:33:18.623Z,47.87
2022-08-26T10:35:59.987Z,48.69
2022-08-26T10:38:37.647Z,49.20
2022-08-26T10:41:15.863Z,49.09
2022-08-26T10:43:53.206Z,49.18
2022-08-26T10:46:27.190Z,49.39
2022-08-26T10:49:08.604Z,49.22
2022-08-26T10:52:12.473Z,48.65
2022-08-26T10:54:48.401Z,48.32
2022-08-26T10:57:33.252Z,48.57
2022-08-26T11:00:27.546Z,49.11
2022-08-26T11:03:22.465Z,48.81
2022-08-26T11:06:16.705Z,47.76
2022-08-26T11:08:50.086Z,45.52
2022-08-26T11:11:50.890Z,44.43
2022-08-26T11:14:29.332Z,42.22
2022-08-26T11:16:59.842Z,40.67
2022-08-26T11:19:59.347Z,41.02
2022-08-26T11:22:38.160Z,43.00
2022-08-26T11:25:19.762Z,42.72
2022-08-26T11:27:56.936Z,42.20
2022-08-26T11:30:25.276Z,42.35
2022-08-26T11:32:57.365Z,43.18
2022-08-26T11:35:24.865Z,44.73
2022-08-26T11:37:59.192Z,46.59
2022-08-26T11:40:29.909Z,47.37
2022-08-26T11:43:03.076Z,47.67
2022-08-26T11:45:59.827Z,48.02
2022-08-26T11:48:28.322Z,45.81
2022-08-26T11:51:06.585Z,43.34
2022-08-26T11:53:38.927Z,41.29
2022-08-26T11:56:28.774Z,41.29
2022-08-26T11:59:02.994Z,42.45
2022-08-26T12:01:36.542Z,43.95
2022-08-26T12:04:07.740Z,44.96
2022-08-26T12:06:48.059Z,46.24
2022-08-26T12:09:34.632Z,47.41
2022-08-26T12:12:23.908Z,48.31
2022-08-26T12:15:19.847Z,48.68
2022-08-26T12:17:54.277Z,48.30
2022-08-26T12:20:31.086Z,47.91
2022-08-26T12:23:00.858Z,47.28
2022-08-26T12:25:36.041Z,47.42
2022-08-26T12:28:06.167Z,47.71
2022-08-26T12:30:33.898Z,48.04
2022-08-26T12:33:22.152Z,48.00
2022-08-26T12:35:56.261Z,48.05
2022-08-26T12:38:26.787Z,48.04
2022-08-26T12:40:54.838Z,48.04
2022-08-26T12:43:46.024Z,48.45
2022-08-26T12:46:18.141Z,48.11
2022-08-26T12:48:49.729Z,48.15
2022-08-26T12:51:30.241Z,47.71
2022-08-26T12:53:59.238Z,46.81
2022-08-26T12:56:29.464Z,46.62
2022-08-26T12:59:25.157Z,46.59
2022-08-26T13:01:53.599Z,45.50
2022-08-26T13:04:40.655Z,43.72
2022-08-26T13:07:14.320Z,42.05
2022-08-26T13:09:43.952Z,40.94
2022-08-26T13:12:11.776Z,40.52
2022-08-26T13:14:40.573Z,40.91
2022-08-26T13:17:08.158Z,41.93
2022-08-26T13:19:35.895Z,42.71
2022-08-26T13:22:05.262Z,42.97
2022-08-26T13:24:39.889Z,42.88
2022-08-26T13:27:10.127Z,41.81
2022-08-26T13:29:37.868Z,40.15
2022-08-26T13:32:06.985Z,38.67
2022-08-26T13:34:36.911Z,37.58
2022-08-26T13:37:07.463Z,36.61
2022-08-26T13:39:35.118Z,35.80
2022-08-26T13:42:02.587Z,35.37
2022-08-26T13:44:30.134Z,34.96
2022-08-26T13:46:57.581Z,34.65
2022-08-26T13:49:34.306Z,34.38
2022-08-26T13:52:04.256Z,33.96
2022-08-26T13:54:31.730Z,33.79
2022-08-26T13:57:02.423Z,33.65
2022-08-26T13:59:30.016Z,33.46
2022-08-26T14:01:58.825Z,33.23
2022-08-26T14:04:27.523Z,33.18
2022-08-26T14:06:55.122Z,33.04
2022-08-26T14:09:22.652Z,32.86
2022-08-26T14:11:54.058Z,32.69
2022-08-26T14:14:23.177Z,32.53
2022-08-26T14:16:58.947Z,32.40
2022-08-26T14:19:30.080Z,32.31
2022-08-26T14:22:00.789Z,32.22
2022-08-26T14:24:29.314Z,32.12
2022-08-26T14:26:56.793Z,31.97
2022-08-26T14:29:24.476Z,31.92
2022-08-26T14:31:52.175Z,31.86
2022-08-26T14:34:19.837Z,31.76
2022-08-26T14:36:47.317Z,31.75
2022-08-26T14:39:14.906Z,31.68
2022-08-26T14:41:53.987Z,31.69
2022-08-26T14:44:26.343Z,31.67
2022-08-26T14:46:54.800Z,31.57
2022-08-26T14:49:24.042Z,31.46
2022-08-26T14:51:51.613Z,31.41
2022-08-26T14:54:20.735Z,31.36
2022-08-26T14:56:50.249Z,31.30
2022-08-26T14:59:24.637Z,31.29
2022-08-26T15:01:52.937Z,31.29
2022-08-26T15:04:20.926Z,31.21
2022-08-26T15:06:48.777Z,31.16
2022-08-26T15:09:16.545Z,31.08
2022-08-26T15:11:44.065Z,31.08
2022-08-26T15:14:19.171Z,31.02
2022-08-26T15:16:50.377Z,30.90
2022-08-26T15:19:18.911Z,30.85
2022-08-26T15:21:47.543Z,30.78
2022-08-26T15:24:21.320Z,30.70
2022-08-26T15:26:49.683Z,30.69
2022-08-26T15:29:26.659Z,30.67
2022-08-26T15:31:55.270Z,30.59
2022-08-26T15:34:30.373Z,30.51
2022-08-26T15:36:58.105Z,30.41
2022-08-26T15:39:25.610Z,30.40
2022-08-26T15:41:53.231Z,30.36
2022-08-26T15:44:20.818Z,30.34
2022-08-26T15:46:49.893Z,30.27
2022-08-26T15:49:18.845Z,30.15
2022-08-26T15:51:48.151Z,30.14
2022-08-26T15:54:17.535Z,30.11
2022-08-26T15:56:45.773Z,30.06
2022-08-26T15:59:15.844Z,30.05
2022-08-26T16:01:44.172Z,29.98
2022-08-26T16:04:12.555Z,29.97
2022-08-26T16:06:41.254Z,29.87
2022-08-26T16:09:11.450Z,29.82
2022-08-26T16:11:39.237Z,29.82
2022-08-26T16:14:07.264Z,29.76
2022-08-26T16:16:39.453Z,29.65
2022-08-26T16:19:08.245Z,29.64
2022-08-26T16:21:36.250Z,29.56
2022-08-26T16:24:04.591Z,29.46
2022-08-26T16:26:34.527Z,29.38
2022-08-26T16:29:05.305Z,29.32
2022-08-26T16:31:33.101Z,29.26
2022-08-26T16:34:00.947Z,29.18
2022-08-26T16:36:28.465Z,29.11
2022-08-26T16:38:56.878Z,29.04
2022-08-26T16:41:27.033Z,29.03
2022-08-26T16:43:58.105Z,28.97
2022-08-26T16:46:26.629Z,28.93
2022-08-26T16:48:56.071Z,28.88
2022-08-26T16:51:27.209Z,28.84
2022-08-26T16:53:56.955Z,28.81
2022-08-26T16:56:33.423Z,28.74
2022-08-26T16:59:04.347Z,28.69
2022-08-26T17:01:32.375Z,28.62
2022-08-26T17:04:00.071Z,28.60
2022-08-26T17:06:27.688Z,28.48
2022-08-26T17:08:55.249Z,28.40
2022-08-26T17:11:22.838Z,28.41
2022-08-26T17:13:50.406Z,28.37
2022-08-26T17:16:18.042Z,28.33
2022-08-26T17:18:45.733Z,28.28
2022-08-26T17:21:14.354Z,28.19
2022-08-26T17:23:43.358Z,28.18
2022-08-26T17:26:12.454Z,28.13
2022-08-26T17:28:42.925Z,28.10
2022-08-26T17:31:12.507Z,28.05
2022-08-26T17:33:40.534Z,28.02
2022-08-26T17:36:10.081Z,27.98
2022-08-26T17:38:38.272Z,28.00
2022-08-26T17:41:10.858Z,27.97
2022-08-26T17:43:39.278Z,27.92
2022-08-26T17:46:08.593Z,27.88
2022-08-26T17:48:38.177Z,27.85
2022-08-26T17:51:27.197Z,27.86
2022-08-26T17:53:55.154Z,27.81
2022-08-26T17:56:27.179Z,27.84
2022-08-26T17:58:58.037Z,27.79
2022-08-26T18:01:32.329Z,27.78
2022-08-26T18:04:01.019Z,27.73
2022-08-26T18:06:30.483Z,27.65
2022-08-26T18:08:59.543Z,27.51
2022-08-26T18:11:28.093Z,27.49
2022-08-26T18:13:55.704Z,27.36
2022-08-26T18:16:27.534Z,27.32
2022-08-26T18:18:55.686Z,27.23
2022-08-26T18:21:25.730Z,27.14
2022-08-26T18:23:56.586Z,27.09
2022-08-26T18:26:31.206Z,27.04
2022-08-26T18:28:59.567Z,26.97
2022-08-26T18:31:27.599Z,26.86
2022-08-26T18:33:55.382Z,26.85
2022-08-26T18:36:28.945Z,26.81
2022-08-26T18:38:57.574Z,26.68
2022-08-26T18:41:28.813Z,26.62
2022-08-26T18:43:57.030Z,26.53
2022-08-26T18:46:28.985Z,26.55
2022-08-26T18:48:57.748Z,26.48
2022-08-26T18:51:31.635Z,26.43
2022-08-26T18:54:00.965Z,26.40
2022-08-26T18:56:29.176Z,26.37
2022-08-26T18:58:56.767Z,26.31
2022-08-26T19:01:27.382Z,26.20
2022-08-26T19:03:57.498Z,26.13
2022-08-26T19:06:26.847Z,26.12
2022-08-26T19:08:55.727Z,26.04
2022-08-26T19:11:32.295Z,26.04
2022-08-26T19:14:13.724Z,26.05
2022-08-26T19:16:47.543Z,25.99
2022-08-26T19:19:16.492Z,25.91
2022-08-26T19:21:44.250Z,25.85
2022-08-26T19:24:15.586Z,25.81
2022-08-26T19:26:48.241Z,25.78
2022-08-26T19:31:47.914Z,25.70
2022-08-26T19:34:20.749Z,25.56
2022-08-26T19:36:49.807Z,25.51
2022-08-26T19:39:17.379Z,25.52
2022-08-26T19:41:45.110Z,25.41
2022-08-26T19:44:37.248Z,25.57
2022-08-26T19:47:06.699Z,25.56
2022-08-26T19:49:35.054Z,25.55
2022-08-26T19:52:03.215Z,25.51
2022-08-26T19:54:30.982Z,25.56
2022-08-26T19:56:58.539Z,25.54
2022-08-26T19:59:26.120Z,25.58
2022-08-26T20:02:01.476Z,25.49
2022-08-26T20:04:32.990Z,25.58
2022-08-26T20:07:02.223Z,25.55
2022-08-26T20:09:30.658Z,25.49
2022-08-26T20:11:58.531Z,25.40
2022-08-26T20:14:27.978Z,25.45
2022-08-26T20:16:56.038Z,25.41
2022-08-26T20:19:44.819Z,25.31
2022-08-26T20:22:12.997Z,25.28
2022-08-26T20:24:41.079Z,25.23
2022-08-26T20:27:09.732Z,25.11
2022-08-26T20:29:40.534Z,25.21
2022-08-26T20:32:08.269Z,25.14
2022-08-26T20:34:36.705Z,25.11
2022-08-26T20:37:05.139Z,25.06
2022-08-26T20:39:32.884Z,25.13
2022-08-26T20:42:04.412Z,25.11
2022-08-26T20:44:34.228Z,25.05
2022-08-26T20:47:01.968Z,25.02
2022-08-26T20:49:32.730Z,24.97
2022-08-26T20:52:07.908Z,24.87
2022-08-26T20:54:35.361Z,24.85
2022-08-26T20:57:03.460Z,24.86
2022-08-26T20:59:36.550Z,24.80
2022-08-26T21:02:04.243Z,24.74
2022-08-26T21:04:31.936Z,24.79
2022-08-26T21:06:59.510Z,24.77
2022-08-26T21:09:28.107Z,24.71
2022-08-26T21:11:57.400Z,24.68
2022-08-26T21:14:27.432Z,24.65
2022-08-26T21:17:01.103Z,24.62
2022-08-26T21:19:28.872Z,24.52
2022-08-26T21:21:56.329Z,24.54
2022-08-26T21:24:23.813Z,24.45
2022-08-26T21:26:51.420Z,24.47
2022-08-26T21:29:19.108Z,24.36
2022-08-26T21:31:47.049Z,24.37
2022-08-26T21:34:17.978Z,24.32
2022-08-26T21:36:49.043Z,24.32
2022-08-26T21:39:17.204Z,24.27
2022-08-26T21:41:45.934Z,24.19
2022-08-26T21:44:15.690Z,24.15
2022-08-26T21:46:44.728Z,24.29
2022-08-26T21:49:15.997Z,24.16
2022-08-26T21:51:48.321Z,24.21
2022-08-26T21:54:16.537Z,24.23
2022-08-26T21:56:47.109Z,24.22
2022-08-26T21:59:17.281Z,24.19
2022-08-26T22:01:45.287Z,23.98
2022-08-26T22:04:16.241Z,24.08
2022-08-26T22:07:10.394Z,24.19
2022-08-26T22:09:37.955Z,23.96
2022-08-26T22:12:18.426Z,24.05
2022-08-26T22:14:49.368Z,24.03
2022-08-26T22:17:17.118Z,23.90
2022-08-26T22:19:46.223Z,24.01
2022-08-26T22:22:14.665Z,23.99
2022-08-26T22:24:43.385Z,23.97
2022-08-26T22:27:12.080Z,24.00
2022-08-26T22:29:39.857Z,23.92
2022-08-26T22:32:07.442Z,23.97
2022-08-26T22:34:37.582Z,23.89
2022-08-26T22:37:05.885Z,23.97
2022-08-26T22:39:34.286Z,23.95
2022-08-26T22:42:03.748Z,23.91
2022-08-26T22:44:32.276Z,23.95
2022-08-26T22:47:02.798Z,23.89
2022-08-26T22:49:30.333Z,23.85
2022-08-26T22:52:00.594Z,23.79
2022-08-26T22:54:28.254Z,23.75
2022-08-26T22:56:56.018Z,23.84
2022-08-26T22:59:23.587Z,23.77
2022-08-26T23:01:51.699Z,23.77
2022-08-26T23:04:19.455Z,23.71
2022-08-26T23:06:47.578Z,23.81
2022-08-26T23:09:18.229Z,23.73
2022-08-26T23:11:47.903Z,23.78
2022-08-26T23:14:17.091Z,23.77
2022-08-26T23:16:45.125Z,23.64
2022-08-26T23:19:14.498Z,23.72
2022-08-26T23:21:42.106Z,23.68
2022-08-26T23:24:10.688Z,23.56
2022-08-26T23:26:40.577Z,23.60
2022-08-26T23:29:10.931Z,23.57
2022-08-26T23:31:40.572Z,23.55
2022-08-26T23:34:26.648Z,23.55
2022-08-26T23:37:00.252Z,23.54
2022-08-26T23:39:33.529Z,23.50
2022-08-26T23:42:01.852Z,23.37
2022-08-26T23:44:30.965Z,23.44
2022-08-26T23:46:59.473Z,23.42
2022-08-26T23:49:28.112Z,23.31
2022-08-26T23:52:14.339Z,23.38
2022-08-26T23:54:42.325Z,23.36
2022-08-26T23:57:10.063Z,23.30
2022-08-26T23:59:40.249Z,23.24
